createdAt,value
2023-05-04T00:01:00.817Z,8.75
2023-05-04T00:03:33.914Z,8.79
2023-05-04T00:06:07.153Z,8.83
2023-05-04T00:08:40.219Z,8.84
2023-05-04T00:11:12.966Z,8.86
2023-05-04T00:13:46.768Z,8.86
2023-05-04T00:16:19.518Z,8.86
2023-05-04T00:18:52.603Z,8.86
2023-05-04T00:21:25.686Z,8.85
2023-05-04T00:23:58.572Z,8.83
2023-05-04T00:26:31.515Z,8.86
2023-05-04T00:29:04.603Z,8.88
2023-05-04T00:31:37.849Z,8.91
2023-05-04T00:34:10.820Z,8.94
2023-05-04T00:36:43.771Z,8.94
2023-05-04T00:39:18.376Z,8.95
2023-05-04T00:41:51.151Z,8.98
2023-05-04T00:44:27.849Z,9.00
2023-05-04T00:47:00.744Z,9.01
2023-05-04T00:49:33.720Z,9.02
2023-05-04T00:52:07.154Z,9.01
2023-05-04T00:54:41.422Z,9.03
2023-05-04T00:57:15.861Z,9.03
2023-05-04T00:59:48.015Z,9.02
2023-05-04T01:02:22.091Z,9.00
2023-05-04T01:04:56.257Z,8.99
2023-05-04T01:07:46.177Z,9.01
2023-05-04T01:10:32.722Z,9.03
2023-05-04T01:13:10.110Z,9.05
2023-05-04T01:15:44.534Z,9.08
2023-05-04T01:18:16.773Z,9.10
2023-05-04T01:20:49.375Z,9.11
2023-05-04T01:23:22.884Z,9.11
2023-05-04T01:26:08.728Z,9.14
2023-05-04T01:29:13.684Z,9.11
2023-05-04T01:31:48.338Z,9.10
2023-05-04T01:34:21.334Z,9.08
2023-05-04T01:36:54.235Z,9.05
2023-05-04T01:39:26.963Z,9.04
2023-05-04T01:42:00.144Z,9.05
2023-05-04T01:44:33.240Z,9.04
2023-05-04T01:47:06.201Z,9.00
2023-05-04T01:49:39.911Z,8.98
2023-05-04T01:52:12.847Z,8.95
2023-05-04T01:54:48.860Z,8.90
2023-05-04T01:57:21.764Z,8.88
2023-05-04T01:59:54.812Z,8.87
2023-05-04T02:02:27.564Z,8.84
2023-05-04T02:05:00.439Z,8.79
2023-05-04T02:07:33.781Z,8.75
2023-05-04T02:10:07.670Z,8.72
2023-05-04T02:12:43.343Z,8.69
2023-05-04T02:15:16.435Z,8.66
2023-05-04T02:17:49.357Z,8.62
2023-05-04T02:20:22.716Z,8.60
2023-05-04T02:22:55.584Z,8.58
2023-05-04T02:25:29.571Z,8.54
2023-05-04T02:28:02.618Z,8.49
2023-05-04T02:30:36.043Z,8.47
2023-05-04T02:33:09.368Z,8.44
2023-05-04T02:35:42.478Z,8.41
2023-05-04T02:38:15.719Z,8.41
2023-05-04T02:40:48.545Z,8.41
2023-05-04T02:43:21.542Z,8.47
2023-05-04T02:45:54.535Z,8.54
2023-05-04T02:48:27.638Z,8.60
2023-05-04T02:51:00.936Z,8.62
2023-05-04T02:53:34.246Z,8.65
2023-05-04T02:56:08.815Z,8.68
2023-05-04T02:58:41.997Z,8.73
2023-05-04T03:01:15.013Z,8.79
2023-05-04T03:03:47.987Z,8.88
2023-05-04T03:06:21.035Z,8.96
2023-05-04T03:08:54.084Z,9.03
2023-05-04T03:11:27.345Z,9.09
2023-05-04T03:14:00.269Z,9.12
2023-05-04T03:16:33.543Z,9.19
2023-05-04T03:19:07.491Z,9.24
2023-05-04T03:21:41.709Z,9.31
2023-05-04T03:24:14.856Z,9.42
2023-05-04T03:26:48.077Z,9.56
2023-05-04T03:29:20.940Z,9.67
2023-05-04T03:31:54.785Z,9.76
2023-05-04T03:34:27.923Z,9.93
2023-05-04T03:37:02.587Z,10.14
2023-05-04T03:39:36.000Z,10.37
2023-05-04T03:42:09.069Z,10.63
2023-05-04T03:44:42.313Z,10.89
2023-05-04T03:47:15.361Z,11.17
2023-05-04T03:49:48.340Z,11.43
2023-05-04T03:52:21.289Z,11.64
2023-05-04T03:54:54.306Z,11.83
2023-05-04T03:57:27.274Z,12.03
2023-05-04T04:00:00.420Z,12.21
2023-05-04T04:02:34.331Z,12.32
2023-05-04T04:05:08.197Z,12.46
2023-05-04T04:07:41.595Z,12.54
2023-05-04T04:10:14.238Z,12.57
2023-05-04T04:12:47.519Z,12.53
2023-05-04T04:15:20.449Z,12.51
2023-05-04T04:17:53.236Z,12.51
2023-05-04T04:20:26.130Z,12.49
2023-05-04T04:22:59.358Z,12.49
2023-05-04T04:25:32.536Z,12.48
2023-05-04T04:28:05.700Z,12.47
2023-05-04T04:30:38.488Z,12.48
2023-05-04T04:33:12.283Z,12.46
2023-05-04T04:35:45.326Z,12.42
2023-05-04T04:38:18.919Z,12.33
2023-05-04T04:40:51.809Z,12.19
2023-05-04T04:43:24.968Z,12.10
2023-05-04T04:45:57.815Z,12.06
2023-05-04T04:48:31.718Z,12.07
2023-05-04T04:51:05.962Z,12.10
2023-05-04T04:53:39.467Z,12.11
2023-05-04T04:56:12.217Z,12.17
2023-05-04T04:58:47.680Z,12.22
2023-05-04T05:01:20.619Z,12.26
2023-05-04T05:03:53.754Z,12.35
2023-05-04T05:06:26.779Z,12.42
2023-05-04T05:08:59.685Z,12.48
2023-05-04T05:11:33.496Z,12.58
2023-05-04T05:14:06.736Z,12.69
2023-05-04T05:16:39.849Z,12.79
2023-05-04T05:19:12.761Z,12.89
2023-05-04T05:21:45.713Z,12.96
2023-05-04T05:24:18.520Z,13.04
2023-05-04T05:26:53.303Z,13.07
2023-05-04T05:29:26.870Z,13.09
2023-05-04T05:31:59.906Z,13.13
2023-05-04T05:34:33.345Z,13.19
2023-05-04T05:37:06.559Z,13.27
2023-05-04T05:39:39.559Z,13.33
2023-05-04T05:42:12.566Z,13.37
2023-05-04T05:44:45.346Z,13.39
2023-05-04T05:47:18.588Z,13.45
2023-05-04T05:49:51.396Z,13.51
2023-05-04T05:52:24.651Z,13.59
2023-05-04T05:54:57.914Z,13.68
2023-05-04T05:57:31.618Z,13.73
2023-05-04T06:00:06.435Z,13.79
2023-05-04T06:02:42.022Z,13.85
2023-05-04T06:05:15.061Z,13.92
2023-05-04T06:07:48.298Z,13.99
2023-05-04T06:10:21.182Z,14.07
2023-05-04T06:12:54.547Z,14.14
2023-05-04T06:15:27.468Z,14.22
2023-05-04T06:18:00.572Z,14.29
2023-05-04T06:20:33.574Z,14.37
2023-05-04T06:23:06.844Z,14.47
2023-05-04T06:25:39.731Z,14.57
2023-05-04T06:28:13.081Z,14.65
2023-05-04T06:30:46.360Z,14.73
2023-05-04T06:33:19.637Z,14.80
2023-05-04T06:35:54.058Z,14.90
2023-05-04T06:38:25.994Z,14.98
2023-05-04T06:40:58.543Z,15.07
2023-05-04T06:43:31.415Z,15.15
2023-05-04T06:46:05.914Z,15.22
2023-05-04T06:48:39.137Z,15.28
2023-05-04T06:51:11.987Z,15.35
2023-05-04T06:53:45.061Z,15.40
2023-05-04T06:56:17.967Z,15.46
2023-05-04T06:58:53.827Z,15.51
2023-05-04T07:01:27.030Z,15.59
2023-05-04T07:03:59.978Z,15.64
2023-05-04T07:06:34.031Z,15.68
2023-05-04T07:09:06.854Z,15.77
2023-05-04T07:11:40.124Z,15.82
2023-05-04T07:14:13.070Z,15.90
2023-05-04T07:16:46.142Z,15.99
2023-05-04T07:19:19.173Z,16.08
2023-05-04T07:21:51.800Z,16.15
2023-05-04T07:24:24.672Z,16.23
2023-05-04T07:26:57.671Z,16.28
2023-05-04T07:29:31.028Z,16.34
2023-05-04T07:32:03.857Z,16.39
2023-05-04T07:34:45.141Z,16.44
2023-05-04T07:37:11.985Z,16.49
2023-05-04T07:39:45.193Z,16.57
2023-05-04T07:42:18.475Z,16.66
2023-05-04T07:44:51.409Z,16.73
2023-05-04T07:47:24.740Z,16.81
2023-05-04T07:49:57.618Z,16.87
2023-05-04T07:52:30.510Z,16.92
2023-05-04T07:55:03.274Z,16.98
2023-05-04T07:57:38.410Z,17.04
2023-05-04T08:00:12.381Z,17.13
2023-05-04T08:02:47.532Z,17.20
2023-05-04T08:05:20.497Z,17.23
2023-05-04T08:07:53.525Z,17.27
2023-05-04T08:10:26.372Z,17.31
2023-05-04T08:12:59.277Z,17.39
2023-05-04T08:15:32.281Z,17.43
2023-05-04T08:18:05.297Z,17.48
2023-05-04T08:20:38.460Z,17.54
2023-05-04T08:23:11.497Z,17.64
2023-05-04T08:25:44.307Z,17.67
2023-05-04T08:28:17.687Z,17.73
2023-05-04T08:30:51.195Z,17.79
2023-05-04T08:33:23.977Z,17.83
2023-05-04T08:35:56.942Z,17.88
2023-05-04T08:38:30.314Z,17.91
2023-05-04T08:41:07.508Z,17.92
2023-05-04T08:43:40.252Z,17.94
2023-05-04T08:46:13.952Z,17.94
2023-05-04T08:48:47.521Z,17.95
2023-05-04T08:51:21.108Z,17.95
2023-05-04T08:53:54.224Z,17.98
2023-05-04T08:56:28.039Z,18.01
2023-05-04T08:59:03.661Z,18.06
2023-05-04T09:01:38.881Z,18.12
2023-05-04T09:04:12.387Z,18.19
2023-05-04T09:06:45.441Z,18.24
2023-05-04T09:09:18.699Z,18.28
2023-05-04T09:11:51.613Z,18.35
2023-05-04T09:14:29.165Z,18.42
2023-05-04T09:17:07.553Z,18.49
2023-05-04T09:19:42.343Z,18.51
2023-05-04T09:22:22.108Z,18.49
2023-05-04T09:24:56.042Z,18.52
2023-05-04T09:27:28.973Z,18.54
2023-05-04T09:30:01.811Z,18.59
2023-05-04T09:32:49.977Z,18.67
2023-05-04T09:35:34.161Z,18.74
2023-05-04T09:38:07.826Z,18.80
2023-05-04T09:40:41.566Z,18.84
2023-05-04T09:43:14.280Z,18.87
2023-05-04T09:45:51.682Z,18.92
2023-05-04T09:48:29.435Z,18.94
2023-05-04T09:51:07.369Z,18.94
2023-05-04T09:53:42.311Z,19.00
2023-05-04T09:56:34.882Z,19.06
2023-05-04T09:59:07.865Z,19.09
2023-05-04T10:01:42.773Z,19.10
2023-05-04T10:04:15.734Z,19.15
2023-05-04T10:06:49.890Z,19.19
2023-05-04T10:09:23.737Z,19.25
2023-05-04T10:12:00.813Z,19.31
2023-05-04T10:14:35.892Z,19.31
2023-05-04T10:17:38.891Z,19.28
2023-05-04T10:20:31.339Z,19.24
2023-05-04T10:23:33.209Z,19.22
2023-05-04T10:26:33.400Z,19.27
2023-05-04T10:29:20.589Z,19.36
2023-05-04T10:31:54.577Z,19.45
2023-05-04T10:34:33.920Z,19.55
2023-05-04T10:37:06.781Z,19.60
2023-05-04T10:39:40.288Z,19.64
2023-05-04T10:42:13.073Z,19.70
2023-05-04T10:44:55.488Z,19.81
2023-05-04T10:47:33.476Z,19.90
2023-05-04T10:50:12.501Z,19.97
2023-05-04T10:52:54.135Z,19.99
2023-05-04T10:55:27.057Z,20.02
2023-05-04T10:57:59.860Z,20.04
2023-05-04T11:00:41.214Z,20.06
2023-05-04T11:03:14.459Z,20.05
2023-05-04T11:05:52.557Z,20.07
2023-05-04T11:08:27.458Z,20.09
2023-05-04T11:11:06.972Z,20.05
2023-05-04T11:13:47.929Z,19.99
2023-05-04T11:16:28.039Z,19.98
2023-05-04T11:19:10.289Z,20.03
2023-05-04T11:21:46.680Z,20.08
2023-05-04T11:24:43.599Z,20.10
2023-05-04T11:27:30.842Z,20.09
2023-05-04T11:30:06.137Z,20.06
2023-05-04T11:32:50.608Z,20.03
2023-05-04T11:35:25.169Z,20.02
2023-05-04T11:37:58.816Z,20.04
2023-05-04T11:40:31.697Z,20.11
2023-05-04T11:43:05.717Z,20.28
2023-05-04T11:45:41.627Z,20.28
2023-05-04T11:48:16.635Z,20.35
2023-05-04T11:50:49.970Z,20.41
2023-05-04T11:53:23.790Z,20.48
2023-05-04T11:55:59.778Z,20.55
2023-05-04T11:58:33.201Z,20.62
2023-05-04T12:01:06.460Z,20.68
2023-05-04T12:03:53.400Z,20.73
2023-05-04T12:06:15.612Z,20.74
2023-05-04T12:08:49.237Z,20.73
2023-05-04T12:11:26.544Z,20.71
2023-05-04T12:14:11.904Z,20.71
2023-05-04T12:16:58.033Z,20.70
2023-05-04T12:19:31.526Z,20.71
2023-05-04T12:22:06.039Z,20.71
2023-05-04T12:24:40.138Z,20.70
2023-05-04T12:27:14.838Z,20.70
2023-05-04T12:29:47.553Z,20.68
2023-05-04T12:32:21.854Z,20.66
2023-05-04T12:34:54.714Z,20.67
2023-05-04T12:37:27.537Z,20.69
2023-05-04T12:40:00.477Z,20.71
2023-05-04T12:42:33.718Z,20.75
2023-05-04T12:45:07.649Z,20.76
2023-05-04T12:47:42.790Z,20.83
2023-05-04T12:50:15.544Z,20.87
2023-05-04T12:52:48.455Z,20.94
2023-05-04T12:55:24.664Z,21.00
2023-05-04T12:57:56.625Z,21.00
2023-05-04T13:00:31.799Z,21.00
2023-05-04T13:03:05.984Z,21.00
2023-05-04T13:05:40.277Z,21.03
2023-05-04T13:08:13.327Z,21.03
2023-05-04T13:10:46.436Z,21.00
2023-05-04T13:13:22.222Z,21.01
2023-05-04T13:15:55.104Z,21.01
2023-05-04T13:18:29.130Z,21.03
2023-05-04T13:21:02.075Z,21.07
2023-05-04T13:23:35.445Z,21.10
2023-05-04T13:26:08.481Z,21.13
2023-05-04T13:28:41.493Z,21.17
2023-05-04T13:31:14.590Z,21.20
2023-05-04T13:33:50.405Z,21.24
2023-05-04T13:36:23.029Z,21.27
2023-05-04T13:38:55.745Z,21.30
2023-05-04T13:41:28.691Z,21.30
2023-05-04T13:44:01.576Z,21.32
2023-05-04T13:46:37.386Z,21.33
2023-05-04T13:49:10.332Z,21.34
2023-05-04T13:51:43.498Z,21.37
2023-05-04T13:54:16.544Z,21.37
2023-05-04T13:56:49.452Z,21.33
2023-05-04T13:59:22.978Z,21.30
2023-05-04T14:01:55.782Z,21.31
2023-05-04T14:04:28.601Z,21.32
2023-05-04T14:07:01.541Z,21.29
2023-05-04T14:09:34.729Z,21.22
2023-05-04T14:12:08.577Z,21.14
2023-05-04T14:14:42.387Z,21.06
2023-05-04T14:17:15.193Z,20.96
2023-05-04T14:19:48.056Z,20.90
2023-05-04T14:22:20.826Z,20.89
2023-05-04T14:24:53.654Z,20.93
2023-05-04T14:27:27.710Z,21.04
2023-05-04T14:29:59.798Z,21.15
2023-05-04T14:32:33.099Z,21.30
2023-05-04T14:35:11.068Z,21.41
2023-05-04T14:37:44.030Z,21.53
2023-05-04T14:40:17.061Z,21.64
2023-05-04T14:42:50.096Z,21.73
2023-05-04T14:45:23.756Z,21.76
2023-05-04T14:50:28.641Z,21.74
2023-05-04T14:53:01.822Z,21.68
2023-05-04T14:55:36.416Z,21.64
2023-05-04T14:58:14.279Z,21.55
2023-05-04T15:00:47.717Z,21.55
2023-05-04T15:03:22.140Z,21.51
2023-05-04T15:05:55.093Z,21.49
2023-05-04T15:08:28.419Z,21.49
2023-05-04T15:11:02.976Z,21.46
2023-05-04T15:13:36.814Z,21.43
2023-05-04T15:16:09.765Z,21.40
2023-05-04T15:18:42.982Z,21.38
2023-05-04T15:21:16.293Z,21.38
2023-05-04T15:23:49.384Z,21.38
2023-05-04T15:26:22.534Z,21.42
2023-05-04T15:28:55.454Z,21.45
2023-05-04T15:31:28.339Z,21.50
2023-05-04T15:34:01.484Z,21.53
2023-05-04T15:36:35.811Z,21.50
2023-05-04T15:39:08.966Z,21.42
2023-05-04T15:41:43.016Z,21.33
2023-05-04T15:44:15.786Z,21.26
2023-05-04T15:46:49.775Z,21.18
2023-05-04T15:49:22.684Z,21.07
2023-05-04T15:51:55.587Z,20.98
2023-05-04T15:54:28.553Z,20.86
2023-05-04T15:57:03.162Z,20.74
2023-05-04T15:59:35.072Z,20.66
2023-05-04T16:02:08.490Z,20.60
2023-05-04T16:04:42.520Z,20.52
2023-05-04T16:07:16.029Z,20.40
2023-05-04T16:09:48.948Z,20.29
2023-05-04T16:12:22.600Z,20.13
2023-05-04T16:14:55.528Z,20.01
2023-05-04T16:17:29.409Z,19.88
2023-05-04T16:20:04.160Z,19.75
2023-05-04T16:22:37.591Z,19.62
2023-05-04T16:25:11.512Z,19.48
2023-05-04T16:27:45.733Z,19.33
2023-05-04T16:30:18.648Z,19.19
2023-05-04T16:32:51.595Z,19.07
2023-05-04T16:35:24.496Z,18.92
2023-05-04T16:37:57.284Z,18.76
2023-05-04T16:40:31.723Z,18.64
2023-05-04T16:43:05.725Z,18.51
2023-05-04T16:45:39.256Z,18.38
2023-05-04T16:48:12.469Z,18.27
2023-05-04T16:50:45.599Z,18.14
2023-05-04T16:53:18.429Z,18.02
2023-05-04T16:55:51.283Z,17.92
2023-05-04T16:58:24.041Z,17.81
2023-05-04T17:00:58.602Z,17.71
2023-05-04T17:03:33.143Z,17.62
2023-05-04T17:06:06.854Z,17.52
2023-05-04T17:08:40.185Z,17.42
2023-05-04T17:11:13.111Z,17.33
2023-05-04T17:13:46.387Z,17.25
2023-05-04T17:16:19.570Z,17.15
2023-05-04T17:18:52.597Z,17.08
2023-05-04T17:21:25.640Z,17.00
2023-05-04T17:23:58.790Z,16.94
2023-05-04T17:26:32.288Z,16.86
2023-05-04T17:29:05.540Z,16.79
2023-05-04T17:31:39.271Z,16.70
2023-05-04T17:34:12.192Z,16.63
2023-05-04T17:36:45.159Z,16.58
2023-05-04T17:39:19.776Z,16.52
2023-05-04T17:41:52.710Z,16.47
2023-05-04T17:44:26.458Z,16.43
2023-05-04T17:46:59.244Z,16.38
2023-05-04T17:49:32.142Z,16.33
2023-05-04T17:52:04.981Z,16.25
2023-05-04T17:54:41.377Z,16.20
2023-05-04T17:57:14.192Z,16.17
2023-05-04T17:59:47.498Z,16.14
2023-05-04T18:02:20.417Z,16.12
2023-05-04T18:04:53.401Z,16.10
2023-05-04T18:07:26.328Z,16.09
2023-05-04T18:09:59.463Z,16.09
2023-05-04T18:12:34.427Z,16.07
2023-05-04T18:15:09.278Z,16.04
2023-05-04T18:17:42.772Z,16.02
2023-05-04T18:20:16.096Z,15.99
2023-05-04T18:22:49.098Z,15.97
2023-05-04T18:25:22.195Z,15.94
2023-05-04T18:27:55.486Z,15.89
2023-05-04T18:30:28.998Z,15.85
2023-05-04T18:33:02.259Z,15.79
2023-05-04T18:35:35.906Z,15.73
2023-05-04T18:38:08.779Z,15.67
2023-05-04T18:40:41.944Z,15.61
2023-05-04T18:43:14.930Z,15.55
2023-05-04T18:45:48.147Z,15.50
2023-05-04T18:48:22.285Z,15.44
2023-05-04T18:50:57.568Z,15.38
2023-05-04T18:53:30.479Z,15.33
2023-05-04T18:56:08.514Z,15.28
2023-05-04T18:58:41.771Z,15.24
2023-05-04T19:01:14.566Z,15.20
2023-05-04T19:03:47.527Z,15.17
2023-05-04T19:06:20.713Z,15.16
2023-05-04T19:08:53.845Z,15.15
2023-05-04T19:11:26.783Z,15.14
2023-05-04T19:13:59.632Z,15.13
2023-05-04T19:16:32.560Z,15.12
2023-05-04T19:19:05.657Z,15.13
2023-05-04T19:21:38.771Z,15.12
2023-05-04T19:24:12.406Z,15.11
2023-05-04T19:26:46.063Z,15.07
2023-05-04T19:29:18.984Z,15.03
2023-05-04T19:31:52.105Z,14.98
2023-05-04T19:34:24.995Z,14.93
2023-05-04T19:36:59.445Z,14.91
2023-05-04T19:39:32.648Z,14.89
2023-05-04T19:42:05.811Z,14.88
2023-05-04T19:44:38.865Z,14.84
2023-05-04T19:47:11.789Z,14.82
2023-05-04T19:49:49.016Z,14.77
2023-05-04T19:52:22.027Z,14.72
2023-05-04T19:54:54.863Z,14.70
2023-05-04T19:57:28.035Z,14.64
2023-05-04T20:00:01.337Z,14.61
2023-05-04T20:02:37.827Z,14.56
2023-05-04T20:05:11.380Z,14.52
2023-05-04T20:07:44.271Z,14.49
2023-05-04T20:10:17.072Z,14.45
2023-05-04T20:12:50.668Z,14.42
2023-05-04T20:15:23.633Z,14.38
2023-05-04T20:17:57.110Z,14.35
2023-05-04T20:20:29.875Z,14.32
2023-05-04T20:23:02.820Z,14.29
2023-05-04T20:25:35.780Z,14.26
2023-05-04T20:28:08.620Z,14.23
2023-05-04T20:30:41.871Z,14.21
2023-05-04T20:33:14.904Z,14.17
2023-05-04T20:35:47.700Z,14.16
2023-05-04T20:38:20.742Z,14.11
2023-05-04T20:40:53.792Z,14.08
2023-05-04T20:43:27.146Z,14.04
2023-05-04T20:45:59.855Z,14.01
2023-05-04T20:48:33.151Z,14.01
2023-05-04T20:51:14.507Z,13.98
2023-05-04T20:53:42.449Z,13.99
2023-05-04T20:56:15.316Z,13.99
2023-05-04T20:58:48.182Z,13.99
2023-05-04T21:01:21.815Z,13.97
2023-05-04T21:03:54.755Z,13.94
2023-05-04T21:06:27.736Z,13.93
2023-05-04T21:09:02.308Z,13.88
2023-05-04T21:11:36.768Z,13.86
2023-05-04T21:14:09.713Z,13.82
2023-05-04T21:16:42.498Z,13.79
2023-05-04T21:19:15.617Z,13.74
2023-05-04T21:21:48.491Z,13.72
2023-05-04T21:24:21.539Z,13.69
2023-05-04T21:26:55.042Z,13.67
2023-05-04T21:29:28.261Z,13.64
2023-05-04T21:32:01.057Z,13.62
2023-05-04T21:34:34.183Z,13.60
2023-05-04T21:37:07.375Z,13.60
2023-05-04T21:39:40.402Z,13.59
2023-05-04T21:42:13.311Z,13.57
2023-05-04T21:44:46.250Z,13.57
2023-05-04T21:47:19.032Z,13.55
2023-05-04T21:49:53.658Z,13.53
2023-05-04T21:52:26.517Z,13.52
2023-05-04T21:54:59.378Z,13.51
2023-05-04T21:57:33.559Z,13.50
2023-05-04T22:00:09.458Z,13.49
2023-05-04T22:02:43.498Z,13.47
2023-05-04T22:05:16.380Z,13.42
2023-05-04T22:07:50.084Z,13.36
2023-05-04T22:10:23.076Z,13.34
2023-05-04T22:12:56.027Z,13.29
2023-05-04T22:15:38.420Z,13.27
2023-05-04T22:18:03.432Z,13.25
2023-05-04T22:20:37.884Z,13.26
2023-05-04T22:23:10.069Z,13.25
2023-05-04T22:25:42.895Z,13.20
2023-05-04T22:28:15.738Z,13.13
2023-05-04T22:30:48.775Z,13.06
2023-05-04T22:33:21.990Z,13.00
2023-05-04T22:35:55.131Z,12.97
2023-05-04T22:38:28.044Z,12.96
2023-05-04T22:41:00.917Z,12.96
2023-05-04T22:43:33.804Z,12.95
2023-05-04T22:46:06.827Z,12.93
2023-05-04T22:48:39.845Z,12.87
2023-05-04T22:51:13.346Z,12.79
2023-05-04T22:53:46.327Z,12.74
2023-05-04T22:56:19.458Z,12.68
2023-05-04T22:58:53.028Z,12.64
2023-05-04T23:01:27.898Z,12.60
2023-05-04T23:04:00.955Z,12.58
2023-05-04T23:06:34.162Z,12.55
2023-05-04T23:09:07.215Z,12.52
2023-05-04T23:11:40.994Z,12.48
2023-05-04T23:14:14.322Z,12.49
2023-05-04T23:16:47.333Z,12.52
2023-05-04T23:19:20.152Z,12.56
2023-05-04T23:21:53.415Z,12.56
2023-05-04T23:24:26.692Z,12.57
2023-05-04T23:26:59.894Z,12.55
2023-05-04T23:29:33.324Z,12.54
2023-05-04T23:32:07.023Z,12.52
2023-05-04T23:34:40.346Z,12.49
2023-05-04T23:37:13.156Z,12.47
2023-05-04T23:39:47.996Z,12.43
2023-05-04T23:42:20.816Z,12.40
2023-05-04T23:44:58.292Z,12.36
2023-05-04T23:47:31.255Z,12.35
2023-05-04T23:50:04.089Z,12.32
2023-05-04T23:52:37.655Z,12.29
2023-05-04T23:55:11.118Z,12.27
2023-05-04T23:57:45.794Z,12.24
